עמוד ראשי
METAR-TAF:

METAR-TAF

שדות תעופה :

Maracaibo, ונצואלה

קו רוחב: 10-34N, קו אורך: 071-44W, גובה: 66מטר

תצפית מזג אוויר נוכחית

הדו"ח נערך לפני 12 שעות ו 34דקות, בשעה 21:00 UTC
טמפרטורת 34 צלסיוס
לחות 67%
לחץ 1010 hPa
ראות 10 קילומטר או יותר
עננים בינוניים בגובה 1600רגל

METAR: SVMC 152100Z /////KT 9999 BKN016 34/27 Q1010

זמן: 05:34 (09:34 UTC)

תחזית

הדו"ח נערך לפני 5 שעות ו 34דקות, בשעה 04:00 UTC
תחזית בתוקף מ 16 ב 06 UTC עד 17 ב 06 UTC
רוח 8קשר מכיוון דרום
ראות 10 קילומטר או יותר
עננים פזורים בגובה 1600רגל
מ 16 ב 0400UTC
רוח 5קשר מכיוון דרום/דרום-מזרח
ראות: 9000מטר
עננים בינוניים בגובה 1600רגל
סופת רעמים, גשם, גשם,

TAF: SVMC 160400Z 1606/1706 18008KT 9999 SCT016 TX35/1617Z TN24/1608Z FM160400 26005KT 7000 TSRA OVC013BECMG 1608/1612 15005KT 9000 RA BKN016

תצפיות ותחזיות מזג אוויר לגבי יותר מ- 4,000 שדות תעופה ברחבי העולם. דוחות METAR ו- TAF.

התחנות הזמינות מסומנות בנקודות צהובות ואדומות על גבי המפה.

העבר את העכבר לנקודה הצבעונית על מנת לראות את שם התחנה.

לאחר מכן, לחץ כדי לראות את תוכן ואת תחזיות מזג האוויר.

כדי לשנות את המפה: לחץ על הכפתורים הירוקים עם הפלוס השחור כדי להתקרב; על הכפתור הירוק עם המקף כדי להתרחק; או בחיצים הירוקים למפות סמוכות.


METAR-TAF: